sensor_id;sensor_type;location;lat;lon;timestamp;pressure;altitude;pressure_sealevel;temperature;humidity
5484;BME280;2764;48.794;8.326;2023-01-27T00:00:52;100281.25;;;-0.19;100.00
5484;BME280;2764;48.794;8.326;2023-01-27T00:01:54;100287.25;;;-0.20;100.00
5484;BME280;2764;48.794;8.326;2023-01-27T00:02:56;100268.31;;;-0.32;100.00
5484;BME280;2764;48.794;8.326;2023-01-27T00:03:58;100276.06;;;-0.25;100.00
5484;BME280;2764;48.794;8.326;2023-01-27T00:05:00;100284.59;;;-0.30;100.00
5484;BME280;2764;48.794;8.326;2023-01-27T00:06:02;100279.38;;;-0.36;100.00
5484;BME280;2764;48.794;8.326;2023-01-27T00:07:07;100266.50;;;-0.42;100.00
5484;BME280;2764;48.794;8.326;2023-01-27T00:08:09;100281.94;;;-0.38;100.00
5484;BME280;2764;48.794;8.326;2023-01-27T00:09:11;100274.25;;;-0.38;100.00
5484;BME280;2764;48.794;8.326;2023-01-27T00:10:18;100287.91;;;-0.39;100.00
5484;BME280;2764;48.794;8.326;2023-01-27T00:11:21;100280.22;;;-0.40;100.00
5484;BME280;2764;48.794;8.326;2023-01-27T00:12:42;100272.50;;;-0.42;100.00
5484;BME280;2764;48.794;8.326;2023-01-27T00:14:03;100287.09;;;-0.38;100.00
5484;BME280;2764;48.794;8.326;2023-01-27T00:15:06;100276.81;;;-0.38;100.00
5484;BME280;2764;48.794;8.326;2023-01-27T00:16:08;100279.34;;;-0.44;100.00
5484;BME280;2764;48.794;8.326;2023-01-27T00:17:10;100277.59;;;-0.45;100.00
5484;BME280;2764;48.794;8.326;2023-01-27T00:18:12;100287.00;;;-0.45;100.00
5484;BME280;2764;48.794;8.326;2023-01-27T00:19:13;100289.63;;;-0.42;100.00
5484;BME280;2764;48.794;8.326;2023-01-27T00:20:20;100286.19;;;-0.43;100.00
5484;BME280;2764;48.794;8.326;2023-01-27T00:21:42;100280.16;;;-0.46;100.00
5484;BME280;2764;48.794;8.326;2023-01-27T00:23:02;100268.97;;;-0.50;100.00
5484;BME280;2764;48.794;8.326;2023-01-27T00:24:23;100265.47;;;-0.61;100.00
5484;BME280;2764;48.794;8.326;2023-01-27T00:25:37;100304.91;;;-0.53;100.00
5484;BME280;2764;48.794;8.326;2023-01-27T00:26:39;100279.22;;;-0.53;100.00
5484;BME280;2764;48.794;8.326;2023-01-27T00:27:41;100280.97;;;-0.52;100.00
5484;BME280;2764;48.794;8.326;2023-01-27T00:28:44;100279.22;;;-0.53;100.00
5484;BME280;2764;48.794;8.326;2023-01-27T00:29:47;100283.56;;;-0.46;100.00
5484;BME280;2764;48.794;8.326;2023-01-27T00:30:49;100277.59;;;-0.45;100.00
5484;BME280;2764;48.794;8.326;2023-01-27T00:31:51;100272.47;;;-0.45;100.00
5484;BME280;2764;48.794;8.326;2023-01-27T00:33:12;100273.34;;;-0.43;100.00
5484;BME280;2764;48.794;8.326;2023-01-27T00:34:27;100219.94;;;-0.77;100.00
5484;BME280;2764;48.794;8.326;2023-01-27T00:35:30;100252.69;;;-0.53;100.00
5484;BME280;2764;48.794;8.326;2023-01-27T00:36:33;100272.50;;;-0.42;100.00
5484;BME280;2764;48.794;8.326;2023-01-27T00:37:35;100272.50;;;-0.42;100.00
5484;BME280;2764;48.794;8.326;2023-01-27T00:38:37;100275.06;;;-0.40;100.00
5484;BME280;2764;48.794;8.326;2023-01-27T00:39:41;100254.41;;;-0.55;100.00
5484;BME280;2764;48.794;8.326;2023-01-27T00:40:43;100269.91;;;-0.43;100.00
5484;BME280;2764;48.794;8.326;2023-01-27T00:42:04;100265.53;;;-0.52;100.00
5484;BME280;2764;48.794;8.326;2023-01-27T00:43:07;100282.75;;;-0.45;100.00
5484;BME280;2764;48.794;8.326;2023-01-27T00:44:09;100275.06;;;-0.42;100.00
5484;BME280;2764;48.794;8.326;2023-01-27T00:45:14;100280.25;;;-0.37;100.00
5484;BME280;2764;48.794;8.326;2023-01-27T00:46:35;100269.09;;;-0.39;100.00
5484;BME280;2764;48.794;8.326;2023-01-27T00:47:36;100279.41;;;-0.35;100.00
5484;BME280;2764;48.794;8.326;2023-01-27T00:48:38;100277.72;;;-0.33;100.00
5484;BME280;2764;48.794;8.326;2023-01-27T00:49:41;100275.97;;;-0.34;100.00
5484;BME280;2764;48.794;8.326;2023-01-27T00:50:44;100269.97;;;-0.34;100.00
5484;BME280;2764;48.794;8.326;2023-01-27T00:51:46;100276.84;;;-0.32;100.00
5484;BME280;2764;48.794;8.326;2023-01-27T00:52:48;100274.28;;;-0.32;100.00
5484;BME280;2764;48.794;8.326;2023-01-27T00:53:51;100276.00;;;-0.31;100.00
5484;BME280;2764;48.794;8.326;2023-01-27T00:54:53;100270.00;;;-0.33;100.00
5484;BME280;2764;48.794;8.326;2023-01-27T00:55:55;100269.13;;;-0.33;100.00
5484;BME280;2764;48.794;8.326;2023-01-27T00:56:59;100263.13;;;-0.35;100.00
5484;BME280;2764;48.794;8.326;2023-01-27T00:58:01;100261.34;;;-0.42;100.00
5484;BME280;2764;48.794;8.326;2023-01-27T00:59:03;100263.09;;;-0.38;100.00
5484;BME280;2764;48.794;8.326;2023-01-27T01:00:05;100263.09;;;-0.38;100.00
5484;BME280;2764;48.794;8.326;2023-01-27T01:01:10;100268.22;;;-0.40;100.00
5484;BME280;2764;48.794;8.326;2023-01-27T01:02:12;100266.50;;;-0.42;100.00
5484;BME280;2764;48.794;8.326;2023-01-27T01:03:14;100263.06;;;-0.44;100.00
5484;BME280;2764;48.794;8.326;2023-01-27T01:04:17;100268.19;;;-0.44;100.00
5484;BME280;2764;48.794;8.326;2023-01-27T01:05:19;100267.31;;;-0.46;100.00
5484;BME280;2764;48.794;8.326;2023-01-27T01:06:21;100269.91;;;-0.45;100.00
5484;BME280;2764;48.794;8.326;2023-01-27T01:07:23;100274.16;;;-0.45;100.00
5484;BME280;2764;48.794;8.326;2023-01-27T01:08:26;100267.31;;;-0.46;100.00
5484;BME280;2764;48.794;8.326;2023-01-27T01:09:28;100273.28;;;-0.46;100.00
5484;BME280;2764;48.794;8.326;2023-01-27T01:10:30;100270.75;;;-0.43;100.00
5484;BME280;2764;48.794;8.326;2023-01-27T01:11:32;100268.19;;;-0.43;100.00
5484;BME280;2764;48.794;8.326;2023-01-27T01:12:35;100267.31;;;-0.45;100.00
5484;BME280;2764;48.794;8.326;2023-01-27T01:13:38;100246.66;;;-0.58;100.00
5484;BME280;2764;48.794;8.326;2023-01-27T01:14:40;100266.44;;;-0.48;100.00
5484;BME280;2764;48.794;8.326;2023-01-27T01:15:43;100263.88;;;-0.48;100.00
5484;BME280;2764;48.794;8.326;2023-01-27T01:16:46;100241.47;;;-0.63;100.00
5484;BME280;2764;48.794;8.326;2023-01-27T01:17:48;100268.16;;;-0.47;100.00
5484;BME280;2764;48.794;8.326;2023-01-27T01:18:50;100272.41;;;-0.48;100.00
5484;BME280;2764;48.794;8.326;2023-01-27T01:19:52;100276.72;;;-0.48;100.00
5484;BME280;2764;48.794;8.326;2023-01-27T01:20:54;100277.56;;;-0.48;100.00
5484;BME280;2764;48.794;8.326;2023-01-27T01:21:55;100272.41;;;-0.48;100.00
5484;BME280;2764;48.794;8.326;2023-01-27T01:22:57;100272.41;;;-0.48;100.00
5484;BME280;2764;48.794;8.326;2023-01-27T01:23:59;100271.59;;;-0.48;100.00
5484;BME280;2764;48.794;8.326;2023-01-27T01:25:01;100261.25;;;-0.53;100.00
5484;BME280;2764;48.794;8.326;2023-01-27T01:26:03;100271.59;;;-0.48;100.00
5484;BME280;2764;48.794;8.326;2023-01-27T01:27:04;100269.84;;;-0.49;100.00
5484;BME280;2764;48.794;8.326;2023-01-27T01:28:07;100208.72;;;-0.85;100.00
5484;BME280;2764;48.794;8.326;2023-01-27T01:29:10;100267.25;;;-0.52;100.00
5484;BME280;2764;48.794;8.326;2023-01-27T01:30:14;100286.06;;;-0.55;100.00
5484;BME280;2764;48.794;8.326;2023-01-27T01:31:18;100268.94;;;-0.56;100.00
5484;BME280;2764;48.794;8.326;2023-01-27T01:32:20;100266.34;;;-0.59;100.00
5484;BME280;2764;48.794;8.326;2023-01-27T01:33:22;100264.59;;;-0.61;100.00
5484;BME280;2764;48.794;8.326;2023-01-27T01:34:24;100268.03;;;-0.61;100.00
5484;BME280;2764;48.794;8.326;2023-01-27T01:35:27;100267.16;;;-0.63;100.00
5484;BME280;2764;48.794;8.326;2023-01-27T01:36:31;100257.72;;;-0.65;100.00
5484;BME280;2764;48.794;8.326;2023-01-27T01:37:33;100262.03;;;-0.64;100.00
5484;BME280;2764;48.794;8.326;2023-01-27T01:38:35;100231.88;;;-0.84;100.00
5484;BME280;2764;48.794;8.326;2023-01-27T01:39:37;100264.59;;;-0.64;100.00
5484;BME280;2764;48.794;8.326;2023-01-27T01:40:43;100257.72;;;-0.65;100.00
5484;BME280;2764;48.794;8.326;2023-01-27T01:41:45;100253.44;;;-0.65;100.00
5484;BME280;2764;48.794;8.326;2023-01-27T01:42:57;100261.16;;;-0.65;100.00
5484;BME280;2764;48.794;8.326;2023-01-27T01:46:32;100239.69;;;-0.68;100.00
5484;BME280;2764;48.794;8.326;2023-01-27T01:47:33;100250.00;;;-0.67;100.00
5484;BME280;2764;48.794;8.326;2023-01-27T01:48:45;100244.84;;;-0.70;100.00
5484;BME280;2764;48.794;8.326;2023-01-27T01:49:49;100240.59;;;-0.65;100.00
5484;BME280;2764;48.794;8.326;2023-01-27T01:50:55;100240.59;;;-0.65;100.00
5484;BME280;2764;48.794;8.326;2023-01-27T01:52:06;100238.88;;;-0.67;100.00
5484;BME280;2764;48.794;8.326;2023-01-27T01:53:10;100238.91;;;-0.64;100.00
5484;BME280;2764;48.794;8.326;2023-01-27T01:54:16;100239.75;;;-0.65;100.00
5484;BME280;2764;48.794;8.326;2023-01-27T01:55:20;100238.03;;;-0.63;100.00
5484;BME280;2764;48.794;8.326;2023-01-27T01:56:26;100196.63;;;-0.98;100.00
5484;BME280;2764;48.794;8.326;2023-01-27T01:57:33;100236.34;;;-0.61;100.00
5484;BME280;2764;48.794;8.326;2023-01-27T01:58:38;100238.03;;;-0.62;100.00
5484;BME280;2764;48.794;8.326;2023-01-27T01:59:52;100233.78;;;-0.61;100.00
5484;BME280;2764;48.794;8.326;2023-01-27T02:00:54;100234.66;;;-0.61;100.00
5484;BME280;2764;48.794;8.326;2023-01-27T02:02:01;100232.91;;;-0.62;100.00
5484;BME280;2764;48.794;8.326;2023-01-27T02:03:04;100235.47;;;-0.63;100.00
5484;BME280;2764;48.794;8.326;2023-01-27T02:04:18;100226.00;;;-0.69;100.00
5484;BME280;2764;48.794;8.326;2023-01-27T02:05:31;100231.22;;;-0.63;100.00
5484;BME280;2764;48.794;8.326;2023-01-27T02:06:41;100230.34;;;-0.63;100.00
5484;BME280;2764;48.794;8.326;2023-01-27T02:08:08;100224.34;;;-0.65;100.00
5484;BME280;2764;48.794;8.326;2023-01-27T02:09:11;100228.59;;;-0.67;100.00
5484;BME280;2764;48.794;8.326;2023-01-27T02:10:13;100227.72;;;-0.68;100.00
5484;BME280;2764;48.794;8.326;2023-01-27T02:11:15;100252.53;;;-0.70;100.00
5484;BME280;2764;48.794;8.326;2023-01-27T02:12:17;100230.28;;;-0.68;100.00
5484;BME280;2764;48.794;8.326;2023-01-27T02:13:20;100231.13;;;-0.69;100.00
5484;BME280;2764;48.794;8.326;2023-01-27T02:14:22;100237.13;;;-0.68;100.00
5484;BME280;2764;48.794;8.326;2023-01-27T02:15:24;100232.00;;;-0.70;100.00
5484;BME280;2764;48.794;8.326;2023-01-27T02:16:27;100231.13;;;-0.69;100.00
5484;BME280;2764;48.794;8.326;2023-01-27T02:17:30;100241.41;;;-0.69;100.00
5484;BME280;2764;48.794;8.326;2023-01-27T02:18:31;100246.53;;;-0.69;100.00
5484;BME280;2764;48.794;8.326;2023-01-27T02:19:45;100239.75;;;-0.67;100.00
5484;BME280;2764;48.794;8.326;2023-01-27T02:20:52;100236.31;;;-0.67;100.00
5484;BME280;2764;48.794;8.326;2023-01-27T02:21:56;100242.31;;;-0.65;100.00
5484;BME280;2764;48.794;8.326;2023-01-27T02:24:31;100243.19;;;-0.65;100.00
5484;BME280;2764;48.794;8.326;2023-01-27T02:26:47;100235.44;;;-0.66;100.00
5484;BME280;2764;48.794;8.326;2023-01-27T02:27:49;100239.75;;;-0.65;100.00
5484;BME280;2764;48.794;8.326;2023-01-27T02:28:58;100244.03;;;-0.64;100.00
5484;BME280;2764;48.794;8.326;2023-01-27T02:30:00;100241.47;;;-0.63;100.00
5484;BME280;2764;48.794;8.326;2023-01-27T02:31:02;100238.91;;;-0.63;100.00
5484;BME280;2764;48.794;8.326;2023-01-27T02:32:05;100182.09;;;-0.96;100.00
5484;BME280;2764;48.794;8.326;2023-01-27T02:33:11;100244.09;;;-0.60;100.00
5484;BME280;2764;48.794;8.326;2023-01-27T02:34:18;100250.06;;;-0.62;100.00
5484;BME280;2764;48.794;8.326;2023-01-27T02:37:00;100244.09;;;-0.60;100.00
5484;BME280;2764;48.794;8.326;2023-01-27T02:38:05;100227.69;;;-0.71;100.00
5484;BME280;2764;48.794;8.326;2023-01-27T02:39:11;100236.38;;;-0.60;100.00
5484;BME280;2764;48.794;8.326;2023-01-27T02:40:15;100238.09;;;-0.59;100.00
5484;BME280;2764;48.794;8.326;2023-01-27T02:41:42;100231.25;;;-0.58;100.00
5484;BME280;2764;48.794;8.326;2023-01-27T02:42:45;100262.06;;;-0.57;100.00
5484;BME280;2764;48.794;8.326;2023-01-27T02:43:48;100228.72;;;-0.55;100.00
5484;BME280;2764;48.794;8.326;2023-01-27T02:44:51;100240.69;;;-0.53;100.00
5484;BME280;2764;48.794;8.326;2023-01-27T02:45:53;100233.84;;;-0.52;100.00
5484;BME280;2764;48.794;8.326;2023-01-27T02:46:55;100233.88;;;-0.51;100.00
5484;BME280;2764;48.794;8.326;2023-01-27T02:47:58;100230.44;;;-0.50;100.00
5484;BME280;2764;48.794;8.326;2023-01-27T02:49:01;100230.50;;;-0.47;100.00
5484;BME280;2764;48.794;8.326;2023-01-27T02:50:07;100208.16;;;-0.54;100.00
5484;BME280;2764;48.794;8.326;2023-01-27T02:51:09;100233.09;;;-0.44;100.00
5484;BME280;2764;48.794;8.326;2023-01-27T02:52:11;100221.06;;;-0.48;100.00
5484;BME280;2764;48.794;8.326;2023-01-27T02:53:13;100227.09;;;-0.44;100.00
5484;BME280;2764;48.794;8.326;2023-01-27T02:54:15;100233.97;;;-0.42;100.00
5484;BME280;2764;48.794;8.326;2023-01-27T02:55:17;100225.38;;;-0.41;100.00
5484;BME280;2764;48.794;8.326;2023-01-27T02:56:21;100234.00;;;-0.37;100.00
5484;BME280;2764;48.794;8.326;2023-01-27T02:57:23;100227.16;;;-0.35;100.00
5484;BME280;2764;48.794;8.326;2023-01-27T02:58:25;100227.16;;;-0.35;100.00
5484;BME280;2764;48.794;8.326;2023-01-27T02:59:27;100231.44;;;-0.36;100.00
5484;BME280;2764;48.794;8.326;2023-01-27T03:00:29;100228.88;;;-0.34;100.00
5484;BME280;2764;48.794;8.326;2023-01-27T03:01:31;100229.72;;;-0.34;100.00
5484;BME280;2764;48.794;8.326;2023-01-27T03:02:33;100253.72;;;-0.32;100.00
5484;BME280;2764;48.794;8.326;2023-01-27T03:03:35;100239.19;;;-0.31;100.00
5484;BME280;2764;48.794;8.326;2023-01-27T03:04:37;100234.88;;;-0.34;100.00
5484;BME280;2764;48.794;8.326;2023-01-27T03:05:39;100231.44;;;-0.36;100.00
5484;BME280;2764;48.794;8.326;2023-01-27T03:06:41;100222.00;;;-0.38;100.00
5484;BME280;2764;48.794;8.326;2023-01-27T03:07:43;100236.59;;;-0.31;100.00
5484;BME280;2764;48.794;8.326;2023-01-27T03:08:45;100225.50;;;-0.29;100.00
5484;BME280;2764;48.794;8.326;2023-01-27T03:09:47;100228.06;;;-0.29;100.00
5484;BME280;2764;48.794;8.326;2023-01-27T03:10:52;100226.38;;;-0.27;100.00
5484;BME280;2764;48.794;8.326;2023-01-27T03:11:55;100246.06;;;-0.27;100.00
5484;BME280;2764;48.794;8.326;2023-01-27T03:13:22;100256.31;;;-0.29;100.00
5484;BME280;2764;48.794;8.326;2023-01-27T03:14:26;100228.94;;;-0.28;100.00
5484;BME280;2764;48.794;8.326;2023-01-27T03:15:48;100258.91;;;-0.29;100.00
5484;BME280;2764;48.794;8.326;2023-01-27T03:17:08;100232.41;;;-0.23;100.00
5484;BME280;2764;48.794;8.326;2023-01-27T03:18:29;100227.22;;;-0.25;100.00
5484;BME280;2764;48.794;8.326;2023-01-27T03:19:30;100229.84;;;-0.22;100.00
5484;BME280;2764;48.794;8.326;2023-01-27T03:20:33;100228.97;;;-0.22;100.00
5484;BME280;2764;48.794;8.326;2023-01-27T03:21:34;100228.16;;;-0.17;100.00
5484;BME280;2764;48.794;8.326;2023-01-27T03:22:36;100229.91;;;-0.14;100.00
5484;BME280;2764;48.794;8.326;2023-01-27T03:23:38;100227.28;;;-0.16;100.00
5484;BME280;2764;48.794;8.326;2023-01-27T03:24:40;100226.44;;;-0.18;100.00
5484;BME280;2764;48.794;8.326;2023-01-27T03:25:44;100236.69;;;-0.21;100.00
5484;BME280;2764;48.794;8.326;2023-01-27T03:26:46;100218.66;;;-0.25;100.00
5484;BME280;2764;48.794;8.326;2023-01-27T03:27:48;100231.59;;;-0.15;100.00
5484;BME280;2764;48.794;8.326;2023-01-27T03:28:50;100229.88;;;-0.19;100.00
5484;BME280;2764;48.794;8.326;2023-01-27T03:30:14;100233.31;;;-0.17;100.00
5484;BME280;2764;48.794;8.326;2023-01-27T03:31:16;100229.88;;;-0.16;100.00
5484;BME280;2764;48.794;8.326;2023-01-27T03:32:22;100229.03;;;-0.16;100.00
5484;BME280;2764;48.794;8.326;2023-01-27T03:33:25;100234.16;;;-0.16;100.00
5484;BME280;2764;48.794;8.326;2023-01-27T03:34:27;100232.44;;;-0.17;100.00
5484;BME280;2764;48.794;8.326;2023-01-27T03:35:29;100229.84;;;-0.20;100.00
5484;BME280;2764;48.794;8.326;2023-01-27T03:36:35;100235.00;;;-0.19;100.00
5484;BME280;2764;48.794;8.326;2023-01-27T03:37:55;100237.53;;;-0.20;100.00
5484;BME280;2764;48.794;8.326;2023-01-27T03:39:15;100239.25;;;-0.21;100.00
5484;BME280;2764;48.794;8.326;2023-01-27T03:40:36;100240.16;;;-0.19;100.00
5484;BME280;2764;48.794;8.326;2023-01-27T03:41:56;100234.97;;;-0.20;100.00
5484;BME280;2764;48.794;8.326;2023-01-27T03:43:17;100238.41;;;-0.21;100.00
5484;BME280;2764;48.794;8.326;2023-01-27T03:44:37;100236.75;;;-0.15;100.00
5484;BME280;2764;48.794;8.326;2023-01-27T03:45:58;100238.44;;;-0.14;100.00
5484;BME280;2764;48.794;8.326;2023-01-27T03:47:19;100241.00;;;-0.14;100.00
5484;BME280;2764;48.794;8.326;2023-01-27T03:48:21;100240.19;;;-0.14;100.00
5484;BME280;2764;48.794;8.326;2023-01-27T03:49:23;100238.44;;;-0.15;100.00
5484;BME280;2764;48.794;8.326;2023-01-27T03:50:24;100242.75;;;-0.13;100.00
5484;BME280;2764;48.794;8.326;2023-01-27T03:51:38;100200.59;;;-0.37;100.00
5484;BME280;2764;48.794;8.326;2023-01-27T03:52:39;100247.06;;;-0.10;100.00
5484;BME280;2764;48.794;8.326;2023-01-27T03:53:42;100245.34;;;-0.10;100.00
5484;BME280;2764;48.794;8.326;2023-01-27T03:54:44;100245.31;;;-0.11;100.00
5484;BME280;2764;48.794;8.326;2023-01-27T03:55:46;100240.22;;;-0.10;100.00
5484;BME280;2764;48.794;8.326;2023-01-27T03:56:48;100241.03;;;-0.09;100.00
5484;BME280;2764;48.794;8.326;2023-01-27T03:57:50;100254.75;;;-0.09;100.00
5484;BME280;2764;48.794;8.326;2023-01-27T03:58:52;100250.50;;;-0.10;100.00
5484;BME280;2764;48.794;8.326;2023-01-27T03:59:54;100252.19;;;-0.10;100.00
5484;BME280;2764;48.794;8.326;2023-01-27T04:00:58;100257.34;;;-0.09;100.00
5484;BME280;2764;48.794;8.326;2023-01-27T04:02:03;100252.19;;;-0.09;100.00
5484;BME280;2764;48.794;8.326;2023-01-27T04:03:28;100257.34;;;-0.10;100.00
5484;BME280;2764;48.794;8.326;2023-01-27T04:04:49;100259.03;;;-0.11;100.00
5484;BME280;2764;48.794;8.326;2023-01-27T04:06:18;100255.59;;;-0.13;100.00
5484;BME280;2764;48.794;8.326;2023-01-27T04:07:38;100258.19;;;-0.08;100.00
5484;BME280;2764;48.794;8.326;2023-01-27T04:08:43;100254.78;;;-0.06;100.00
5484;BME280;2764;48.794;8.326;2023-01-27T04:09:45;100263.38;;;-0.05;100.00
5484;BME280;2764;48.794;8.326;2023-01-27T04:10:46;100258.19;;;-0.08;100.00
5484;BME280;2764;48.794;8.326;2023-01-27T04:12:08;100256.50;;;-0.08;100.00
5484;BME280;2764;48.794;8.326;2023-01-27T04:13:10;100260.78;;;-0.07;100.00
5484;BME280;2764;48.794;8.326;2023-01-27T04:14:12;100265.06;;;-0.04;100.00
5484;BME280;2764;48.794;8.326;2023-01-27T04:15:14;100259.94;;;-0.04;100.00
5484;BME280;2764;48.794;8.326;2023-01-27T04:16:18;100263.38;;;-0.02;100.00
5484;BME280;2764;48.794;8.326;2023-01-27T04:17:20;100255.66;;;-0.02;100.00
5484;BME280;2764;48.794;8.326;2023-01-27T04:18:22;100256.50;;;-0.06;100.00
5484;BME280;2764;48.794;8.326;2023-01-27T04:19:24;100259.06;;;-0.05;100.00
5484;BME280;2764;48.794;8.326;2023-01-27T04:20:26;100257.38;;;-0.06;100.00
5484;BME280;2764;48.794;8.326;2023-01-27T04:21:28;100261.63;;;-0.06;100.00
5484;BME280;2764;48.794;8.326;2023-01-27T04:22:30;100261.63;;;-0.08;100.00
5484;BME280;2764;48.794;8.326;2023-01-27T04:23:32;100257.38;;;-0.07;100.00
5484;BME280;2764;48.794;8.326;2023-01-27T04:24:34;100268.47;;;-0.07;100.00
5484;BME280;2764;48.794;8.326;2023-01-27T04:25:36;100252.19;;;-0.12;100.00
5484;BME280;2764;48.794;8.326;2023-01-27T04:26:38;100231.47;;;-0.30;100.00
5484;BME280;2764;48.794;8.326;2023-01-27T04:27:42;100264.22;;;-0.08;100.00
5484;BME280;2764;48.794;8.326;2023-01-27T04:28:44;100264.22;;;-0.08;100.00
5484;BME280;2764;48.794;8.326;2023-01-27T04:29:47;100262.47;;;-0.09;100.00
5484;BME280;2764;48.794;8.326;2023-01-27T04:30:49;100259.91;;;-0.12;100.00
5484;BME280;2764;48.794;8.326;2023-01-27T04:31:52;100262.47;;;-0.09;100.00
5484;BME280;2764;48.794;8.326;2023-01-27T04:32:55;100255.63;;;-0.10;100.00
5484;BME280;2764;48.794;8.326;2023-01-27T04:33:57;100267.63;;;-0.09;100.00
5484;BME280;2764;48.794;8.326;2023-01-27T04:34:59;100267.63;;;-0.09;100.00
5484;BME280;2764;48.794;8.326;2023-01-27T04:36:01;100265.03;;;-0.10;100.00
5484;BME280;2764;48.794;8.326;2023-01-27T04:37:05;100269.34;;;-0.08;100.00
5484;BME280;2764;48.794;8.326;2023-01-27T04:38:07;100265.06;;;-0.07;100.00
5484;BME280;2764;48.794;8.326;2023-01-27T04:39:09;100258.16;;;-0.13;100.00
5484;BME280;2764;48.794;8.326;2023-01-27T04:40:11;100277.09;;;-0.03;100.00
5484;BME280;2764;48.794;8.326;2023-01-27T04:41:13;100264.25;;;-0.02;100.00
5484;BME280;2764;48.794;8.326;2023-01-27T04:42:15;100269.41;;;0.02;100.00
5484;BME280;2764;48.794;8.326;2023-01-27T04:43:17;100266.88;;;0.06;100.00
5484;BME280;2764;48.794;8.326;2023-01-27T04:44:19;100269.44;;;0.06;100.00
5484;BME280;2764;48.794;8.326;2023-01-27T04:45:21;100271.16;;;0.04;100.00
5484;BME280;2764;48.794;8.326;2023-01-27T04:46:26;100273.69;;;0.03;100.00
5484;BME280;2764;48.794;8.326;2023-01-27T04:47:28;100261.69;;;0.00;100.00
5484;BME280;2764;48.794;8.326;2023-01-27T04:48:30;100210.03;;;-0.35;100.00
5484;BME280;2764;48.794;8.326;2023-01-27T04:49:32;100271.13;;;-0.01;100.00
5484;BME280;2764;48.794;8.326;2023-01-27T04:50:34;100265.97;;;0.03;100.00
5484;BME280;2764;48.794;8.326;2023-01-27T04:51:36;100266.84;;;0.00;100.00
5484;BME280;2764;48.794;8.326;2023-01-27T04:52:38;100269.38;;;-0.02;100.00
5484;BME280;2764;48.794;8.326;2023-01-27T04:53:40;100262.53;;;-0.03;100.00
5484;BME280;2764;48.794;8.326;2023-01-27T04:54:43;100269.34;;;-0.05;100.00
5484;BME280;2764;48.794;8.326;2023-01-27T04:55:47;100269.34;;;-0.05;100.00
5484;BME280;2764;48.794;8.326;2023-01-27T04:56:58;100253.88;;;-0.17;100.00
5484;BME280;2764;48.794;8.326;2023-01-27T04:58:00;100258.19;;;-0.10;100.00
5484;BME280;2764;48.794;8.326;2023-01-27T04:59:07;100266.78;;;-0.06;100.00
5484;BME280;2764;48.794;8.326;2023-01-27T05:00:11;100268.47;;;-0.07;100.00
5484;BME280;2764;48.794;8.326;2023-01-27T05:01:13;100270.22;;;-0.06;100.00
5484;BME280;2764;48.794;8.326;2023-01-27T05:02:15;100263.38;;;-0.05;100.00
5484;BME280;2764;48.794;8.326;2023-01-27T05:03:17;100266.78;;;-0.06;100.00
5484;BME280;2764;48.794;8.326;2023-01-27T05:04:19;100265.06;;;-0.06;100.00
5484;BME280;2764;48.794;8.326;2023-01-27T05:05:21;100269.34;;;-0.06;100.00
5484;BME280;2764;48.794;8.326;2023-01-27T05:06:24;100265.91;;;-0.07;100.00
5484;BME280;2764;48.794;8.326;2023-01-27T05:07:26;100262.50;;;-0.04;100.00
5484;BME280;2764;48.794;8.326;2023-01-27T05:08:28;100263.38;;;-0.04;100.00
5484;BME280;2764;48.794;8.326;2023-01-27T05:09:29;100261.63;;;-0.05;100.00
5484;BME280;2764;48.794;8.326;2023-01-27T05:10:31;100266.81;;;-0.03;100.00
5484;BME280;2764;48.794;8.326;2023-01-27T05:11:33;100263.38;;;-0.02;100.00
5484;BME280;2764;48.794;8.326;2023-01-27T05:12:35;100271.09;;;-0.04;100.00
5484;BME280;2764;48.794;8.326;2023-01-27T05:13:37;100271.94;;;-0.03;100.00
5484;BME280;2764;48.794;8.326;2023-01-27T05:14:41;100269.34;;;-0.05;100.00
5484;BME280;2764;48.794;8.326;2023-01-27T05:15:42;100265.94;;;-0.04;100.00
5484;BME280;2764;48.794;8.326;2023-01-27T05:16:44;100268.53;;;0.01;100.00
5484;BME280;2764;48.794;8.326;2023-01-27T05:17:46;100268.53;;;0.03;100.00
5484;BME280;2764;48.794;8.326;2023-01-27T05:18:49;100268.53;;;0.03;100.00
5484;BME280;2764;48.794;8.326;2023-01-27T05:19:51;100272.00;;;0.05;100.00
5484;BME280;2764;48.794;8.326;2023-01-27T05:20:52;100272.00;;;0.08;100.00
5484;BME280;2764;48.794;8.326;2023-01-27T05:21:54;100268.56;;;0.07;100.00
5484;BME280;2764;48.794;8.326;2023-01-27T05:22:56;100269.47;;;0.09;100.00
5484;BME280;2764;48.794;8.326;2023-01-27T05:24:19;100267.78;;;0.13;100.00
5484;BME280;2764;48.794;8.326;2023-01-27T05:25:21;100271.19;;;0.10;100.00
5484;BME280;2764;48.794;8.326;2023-01-27T05:26:25;100266.91;;;0.09;100.00
5484;BME280;2764;48.794;8.326;2023-01-27T05:27:28;100272.94;;;0.16;100.00
5484;BME280;2764;48.794;8.326;2023-01-27T05:28:30;100281.53;;;0.18;100.00
5484;BME280;2764;48.794;8.326;2023-01-27T05:29:32;100282.38;;;0.20;100.00
5484;BME280;2764;48.794;8.326;2023-01-27T05:30:33;100275.50;;;0.17;100.00
5484;BME280;2764;48.794;8.326;2023-01-27T05:31:35;100272.06;;;0.14;100.00
5484;BME280;2764;48.794;8.326;2023-01-27T05:32:37;100277.22;;;0.14;100.00
5484;BME280;2764;48.794;8.326;2023-01-27T05:33:40;100278.06;;;0.13;100.00
5484;BME280;2764;48.794;8.326;2023-01-27T05:34:42;100279.75;;;0.12;100.00
5484;BME280;2764;48.794;8.326;2023-01-27T05:35:44;100276.31;;;0.12;100.00
5484;BME280;2764;48.794;8.326;2023-01-27T05:36:45;100276.31;;;0.12;100.00
5484;BME280;2764;48.794;8.326;2023-01-27T05:37:47;100276.31;;;0.12;100.00
5484;BME280;2764;48.794;8.326;2023-01-27T05:38:49;100277.16;;;0.08;100.00
5484;BME280;2764;48.794;8.326;2023-01-27T05:39:51;100281.47;;;0.10;100.00
5484;BME280;2764;48.794;8.326;2023-01-27T05:40:58;100284.91;;;0.11;100.00
5484;BME280;2764;48.794;8.326;2023-01-27T05:42:01;100285.78;;;0.11;100.00
5484;BME280;2764;48.794;8.326;2023-01-27T05:43:03;100291.78;;;0.13;100.00
5484;BME280;2764;48.794;8.326;2023-01-27T05:44:05;100291.78;;;0.15;100.00
5484;BME280;2764;48.794;8.326;2023-01-27T05:45:08;100290.06;;;0.15;100.00
5484;BME280;2764;48.794;8.326;2023-01-27T05:46:12;100294.38;;;0.18;100.00
5484;BME280;2764;48.794;8.326;2023-01-27T05:47:14;100285.78;;;0.13;100.00
5484;BME280;2764;48.794;8.326;2023-01-27T05:48:16;100290.94;;;0.16;100.00
5484;BME280;2764;48.794;8.326;2023-01-27T05:49:18;100289.25;;;0.16;100.00
5484;BME280;2764;48.794;8.326;2023-01-27T05:50:20;100295.22;;;0.17;100.00
5484;BME280;2764;48.794;8.326;2023-01-27T05:51:23;100294.38;;;0.19;100.00